createdAt,value
2017-10-15T00:00:50.930Z,11.00
2017-10-15T00:03:18.682Z,10.33
2017-10-15T00:05:46.282Z,10.37
2017-10-15T00:08:13.978Z,10.20
2017-10-15T00:10:41.590Z,10.70
2017-10-15T00:13:09.324Z,12.10
2017-10-15T00:15:37.001Z,13.00
2017-10-15T00:18:04.609Z,11.00
2017-10-15T00:20:32.258Z,12.20
2017-10-15T00:22:59.917Z,11.90
2017-10-15T00:25:28.337Z,11.10
2017-10-15T00:27:56.866Z,11.87
2017-10-15T00:30:24.942Z,12.47
2017-10-15T00:32:53.218Z,11.07
2017-10-15T00:35:23.679Z,12.17
2017-10-15T00:37:52.181Z,12.20
2017-10-15T00:40:20.518Z,12.40
2017-10-15T00:42:49.130Z,12.63
2017-10-15T00:45:16.786Z,12.70
2017-10-15T00:47:45.226Z,13.27
2017-10-15T00:50:13.011Z,11.97
2017-10-15T00:52:40.727Z,11.80
2017-10-15T00:55:08.518Z,12.67
2017-10-15T00:57:36.151Z,13.53
2017-10-15T01:00:05.213Z,12.53
2017-10-15T01:02:32.971Z,13.40
2017-10-15T01:05:00.572Z,13.93
2017-10-15T01:07:28.174Z,13.83
2017-10-15T01:09:55.751Z,12.83
2017-10-15T01:12:23.519Z,14.43
2017-10-15T01:14:51.292Z,14.57
2017-10-15T01:17:20.540Z,14.07
2017-10-15T01:19:48.254Z,13.63
2017-10-15T01:22:25.610Z,12.60
2017-10-15T01:24:53.238Z,15.40
2017-10-15T01:27:20.861Z,13.93
2017-10-15T01:29:48.517Z,15.23
2017-10-15T01:32:16.122Z,14.87
2017-10-15T01:34:43.711Z,13.40
2017-10-15T01:37:11.531Z,14.87
2017-10-15T01:39:39.239Z,14.70
2017-10-15T01:42:07.142Z,15.67
2017-10-15T01:44:34.950Z,14.60
2017-10-15T01:47:02.588Z,14.73
2017-10-15T01:49:30.376Z,14.63
2017-10-15T01:51:58.168Z,16.00
2017-10-15T01:54:25.787Z,14.20
2017-10-15T01:56:53.582Z,13.97
2017-10-15T01:59:22.183Z,13.90
2017-10-15T02:01:50.576Z,14.23
2017-10-15T02:04:18.102Z,13.77
2017-10-15T02:06:45.676Z,15.10
2017-10-15T02:09:13.342Z,14.50
2017-10-15T02:11:40.922Z,13.57
2017-10-15T02:14:08.519Z,14.37
2017-10-15T02:16:36.140Z,14.23
2017-10-15T02:19:03.834Z,14.90
2017-10-15T02:21:31.458Z,14.40
2017-10-15T02:23:59.065Z,14.90
2017-10-15T02:26:26.880Z,15.93
2017-10-15T02:28:54.618Z,16.00
2017-10-15T02:31:22.224Z,17.67
2017-10-15T02:33:49.824Z,16.43
2017-10-15T02:36:17.422Z,17.90
2017-10-15T02:38:45.096Z,16.60
2017-10-15T02:41:12.783Z,15.70
2017-10-15T02:43:40.401Z,15.83
2017-10-15T02:46:08.081Z,16.17
2017-10-15T02:48:35.846Z,15.80
2017-10-15T02:51:03.420Z,16.10
2017-10-15T02:53:31.007Z,16.07
2017-10-15T02:55:58.569Z,16.30
2017-10-15T02:58:26.167Z,16.20
2017-10-15T03:00:53.823Z,17.17
2017-10-15T03:03:21.379Z,15.50
2017-10-15T03:05:49.188Z,16.03
2017-10-15T03:08:16.849Z,16.10
2017-10-15T03:10:44.647Z,15.80
2017-10-15T03:13:12.230Z,17.37
2017-10-15T03:15:39.907Z,16.90
2017-10-15T03:18:07.660Z,16.73
2017-10-15T03:20:35.250Z,16.50
2017-10-15T03:23:02.965Z,16.20
2017-10-15T03:25:30.588Z,18.67
2017-10-15T03:27:58.385Z,19.00
2017-10-15T03:30:25.998Z,20.33
2017-10-15T03:32:54.492Z,19.80
2017-10-15T03:35:22.097Z,18.80
2017-10-15T03:37:49.687Z,18.37
2017-10-15T03:40:17.456Z,20.60
2017-10-15T03:42:45.064Z,20.17
2017-10-15T03:45:12.675Z,19.63
2017-10-15T03:47:40.448Z,19.70
2017-10-15T03:50:08.084Z,19.30
2017-10-15T03:52:35.711Z,20.63
2017-10-15T03:55:03.297Z,18.90
2017-10-15T03:57:31.111Z,19.30
2017-10-15T03:59:59.056Z,18.13
2017-10-15T04:02:26.660Z,19.20
2017-10-15T04:04:54.276Z,19.00
2017-10-15T04:07:21.914Z,18.30
2017-10-15T04:09:49.554Z,18.73
2017-10-15T04:12:17.430Z,18.97
2017-10-15T04:14:45.082Z,18.50
2017-10-15T04:17:13.107Z,20.10
2017-10-15T04:19:41.018Z,20.37
2017-10-15T04:22:09.513Z,20.10
2017-10-15T04:24:37.125Z,19.60
2017-10-15T04:27:04.948Z,19.10
2017-10-15T04:29:33.178Z,18.80
2017-10-15T04:32:00.779Z,19.23
2017-10-15T04:34:28.344Z,18.53
2017-10-15T04:36:56.194Z,17.37
2017-10-15T04:39:23.846Z,18.87
2017-10-15T04:41:51.676Z,16.10
2017-10-15T04:44:19.488Z,16.43
2017-10-15T04:46:47.715Z,17.00
2017-10-15T04:49:15.254Z,17.00
2017-10-15T04:51:42.807Z,17.83
2017-10-15T04:54:10.434Z,17.83
2017-10-15T04:56:38.259Z,18.13
2017-10-15T04:59:06.025Z,16.43
2017-10-15T05:01:33.679Z,17.40
2017-10-15T05:04:01.910Z,16.20
2017-10-15T05:06:29.532Z,17.20
2017-10-15T05:08:57.186Z,16.77
2017-10-15T05:11:29.335Z,15.90
2017-10-15T05:13:57.090Z,16.00
2017-10-15T05:16:27.106Z,17.87
2017-10-15T05:18:57.120Z,16.07
2017-10-15T05:21:26.928Z,16.03
2017-10-15T05:26:36.145Z,16.60
2017-10-15T05:29:06.484Z,17.33
2017-10-15T05:31:42.259Z,17.53
2017-10-15T05:34:10.135Z,19.80
2017-10-15T05:36:39.890Z,18.67
2017-10-15T05:39:09.148Z,20.70
2017-10-15T05:41:37.244Z,17.90
2017-10-15T05:44:06.018Z,17.50
2017-10-15T05:46:33.681Z,16.93
2017-10-15T05:49:01.294Z,15.83
2017-10-15T05:51:31.047Z,17.77
2017-10-15T05:53:59.341Z,17.10
2017-10-15T05:56:27.336Z,20.80
2017-10-15T05:58:55.633Z,18.47
2017-10-15T06:01:24.498Z,18.60
2017-10-15T06:03:52.523Z,19.50
2017-10-15T06:06:20.333Z,17.83
2017-10-15T06:08:53.981Z,15.77
2017-10-15T06:11:22.650Z,15.50
2017-10-15T06:13:50.252Z,15.00
2017-10-15T06:16:18.288Z,16.47
2017-10-15T06:18:45.868Z,15.47
2017-10-15T06:21:14.300Z,16.70
2017-10-15T06:23:47.451Z,16.33
2017-10-15T06:26:18.418Z,16.10
2017-10-15T06:28:46.810Z,16.80
2017-10-15T06:31:16.860Z,14.13
2017-10-15T06:33:47.575Z,15.60
2017-10-15T06:36:17.004Z,14.50
2017-10-15T06:38:44.843Z,14.70
2017-10-15T06:41:12.391Z,14.60
2017-10-15T06:43:39.965Z,14.20
2017-10-15T06:46:07.614Z,13.87
2017-10-15T06:48:35.354Z,13.30
2017-10-15T06:51:03.557Z,12.80
2017-10-15T06:53:37.300Z,13.37
2017-10-15T06:56:09.141Z,14.80
2017-10-15T06:58:36.723Z,14.70
2017-10-15T07:01:04.474Z,14.20
2017-10-15T07:03:32.056Z,16.60
2017-10-15T07:05:59.699Z,14.47
2017-10-15T07:08:27.554Z,13.27
2017-10-15T07:10:56.515Z,14.73
2017-10-15T07:13:24.334Z,13.67
2017-10-15T07:15:51.946Z,13.20
2017-10-15T07:18:19.551Z,13.97
2017-10-15T07:20:48.250Z,12.87
2017-10-15T07:23:18.918Z,14.43
2017-10-15T07:25:46.862Z,15.83
2017-10-15T07:28:14.500Z,15.47
2017-10-15T07:30:42.135Z,15.00
2017-10-15T07:33:09.925Z,16.10
2017-10-15T07:35:37.491Z,15.80
2017-10-15T07:38:05.100Z,15.10
2017-10-15T07:40:32.882Z,15.70
2017-10-15T07:43:00.427Z,16.43
2017-10-15T07:45:28.158Z,16.00
2017-10-15T07:47:55.743Z,14.77
2017-10-15T07:50:23.375Z,14.00
2017-10-15T07:52:51.039Z,14.20
2017-10-15T07:55:18.567Z,15.23
2017-10-15T07:57:46.322Z,13.67
2017-10-15T08:00:13.951Z,12.77
2017-10-15T08:02:42.547Z,12.57
2017-10-15T08:05:11.321Z,12.47
2017-10-15T08:07:38.912Z,11.40
2017-10-15T08:10:07.428Z,11.50
2017-10-15T08:12:35.124Z,11.00
2017-10-15T08:15:02.746Z,13.43
2017-10-15T08:17:31.321Z,11.43
2017-10-15T08:19:59.062Z,11.73
2017-10-15T08:22:26.702Z,11.60
2017-10-15T08:24:54.404Z,12.00
2017-10-15T08:27:21.988Z,13.27
2017-10-15T08:29:51.310Z,13.00
2017-10-15T08:32:19.587Z,13.27
2017-10-15T08:34:49.172Z,10.30
2017-10-15T08:37:18.477Z,11.60
2017-10-15T08:39:47.660Z,10.27
2017-10-15T08:42:15.755Z,9.70
2017-10-15T08:44:43.825Z,10.30
2017-10-15T08:47:13.355Z,10.00
2017-10-15T08:49:41.225Z,11.13
2017-10-15T08:52:11.321Z,10.00
2017-10-15T08:54:40.158Z,10.17
2017-10-15T08:57:09.446Z,10.30
2017-10-15T08:59:39.459Z,9.97
2017-10-15T09:02:08.904Z,9.33
2017-10-15T09:04:38.494Z,9.10
2017-10-15T09:07:06.940Z,9.20
2017-10-15T09:09:34.605Z,9.40
2017-10-15T09:12:02.215Z,10.10
2017-10-15T09:14:30.020Z,9.73
2017-10-15T09:16:57.618Z,9.77
2017-10-15T09:19:25.151Z,9.50
2017-10-15T09:21:52.718Z,8.83
2017-10-15T09:24:20.320Z,8.60
2017-10-15T09:26:47.838Z,8.67
2017-10-15T09:29:15.465Z,8.57
2017-10-15T09:31:43.116Z,8.70
2017-10-15T09:34:10.665Z,9.07
2017-10-15T09:36:38.422Z,8.77
2017-10-15T09:39:06.031Z,8.93
2017-10-15T09:41:33.566Z,7.70
2017-10-15T09:44:01.487Z,8.60
2017-10-15T09:46:29.082Z,8.70
2017-10-15T09:48:56.608Z,7.80
2017-10-15T09:51:24.156Z,8.33
2017-10-15T09:53:51.804Z,7.57
2017-10-15T09:56:19.376Z,7.43
2017-10-15T09:58:46.981Z,7.67
2017-10-15T10:01:14.564Z,7.67
2017-10-15T10:03:42.108Z,7.70
2017-10-15T10:06:09.670Z,7.83
2017-10-15T10:08:37.271Z,6.37
2017-10-15T10:11:04.882Z,6.93
2017-10-15T10:13:33.593Z,6.97
2017-10-15T10:16:01.175Z,7.07
2017-10-15T10:18:28.727Z,6.57
2017-10-15T10:20:56.302Z,6.43
2017-10-15T10:23:23.965Z,6.27
2017-10-15T10:25:51.816Z,5.80
2017-10-15T10:28:19.394Z,6.00
2017-10-15T10:30:47.014Z,6.30
2017-10-15T10:33:14.538Z,7.10
2017-10-15T10:35:42.124Z,6.53
2017-10-15T10:38:09.794Z,6.77
2017-10-15T10:40:37.430Z,6.37
2017-10-15T10:43:04.973Z,5.50
2017-10-15T10:45:32.566Z,5.43
2017-10-15T10:48:00.377Z,5.90
2017-10-15T10:50:27.924Z,6.60
2017-10-15T10:52:55.518Z,5.53
2017-10-15T10:55:23.043Z,5.10
2017-10-15T10:57:50.600Z,5.10
2017-10-15T11:00:18.223Z,5.83
2017-10-15T11:02:45.998Z,6.00
2017-10-15T11:05:13.561Z,5.10
2017-10-15T11:07:41.158Z,4.40
2017-10-15T11:10:08.962Z,5.40
2017-10-15T11:12:36.496Z,4.87
2017-10-15T11:15:04.411Z,4.97
2017-10-15T11:17:31.992Z,5.40
2017-10-15T11:19:59.763Z,5.47
2017-10-15T11:22:27.348Z,4.67
2017-10-15T11:24:54.925Z,4.90
2017-10-15T11:27:22.471Z,5.17
2017-10-15T11:29:50.052Z,5.07
2017-10-15T11:32:17.598Z,4.63
2017-10-15T11:34:45.397Z,4.80
2017-10-15T11:37:13.217Z,4.13
2017-10-15T11:39:40.837Z,5.00
2017-10-15T11:42:08.340Z,4.13
2017-10-15T11:44:35.898Z,4.90
2017-10-15T11:47:03.491Z,4.40
2017-10-15T11:49:31.311Z,5.33
2017-10-15T11:51:58.850Z,4.93
2017-10-15T11:54:26.586Z,3.83
2017-10-15T11:56:54.214Z,4.93
2017-10-15T11:59:21.787Z,4.03
2017-10-15T12:01:49.499Z,4.40
2017-10-15T12:04:17.054Z,4.40
2017-10-15T12:06:44.638Z,4.90
2017-10-15T12:09:12.213Z,4.13
2017-10-15T12:11:39.767Z,4.10
2017-10-15T12:14:07.384Z,4.50
2017-10-15T12:16:34.995Z,4.00
2017-10-15T12:19:02.551Z,4.50
2017-10-15T12:21:30.150Z,4.47
2017-10-15T12:23:57.754Z,4.57
2017-10-15T12:26:25.855Z,4.27
2017-10-15T12:28:53.757Z,5.17
2017-10-15T12:31:21.522Z,4.80
2017-10-15T12:33:49.097Z,4.60
2017-10-15T12:36:16.634Z,4.63
2017-10-15T12:38:44.277Z,4.63
2017-10-15T12:41:11.823Z,4.57
2017-10-15T12:43:40.548Z,4.73
2017-10-15T12:46:08.438Z,4.90
2017-10-15T12:48:36.413Z,4.70
2017-10-15T12:53:44.905Z,4.77
2017-10-15T12:56:12.610Z,4.70
2017-10-15T12:58:40.407Z,6.00
2017-10-15T13:01:08.381Z,42.33
2017-10-15T13:03:36.254Z,22.90
2017-10-15T13:06:04.090Z,7.13
2017-10-15T13:08:32.073Z,6.90
2017-10-15T13:11:00.087Z,5.30
2017-10-15T13:13:28.659Z,4.87
2017-10-15T13:15:56.708Z,5.40
2017-10-15T13:18:24.667Z,5.60
2017-10-15T13:20:53.045Z,5.10
2017-10-15T13:23:21.486Z,4.93
2017-10-15T13:25:49.960Z,4.40
2017-10-15T13:28:18.368Z,5.00
2017-10-15T13:30:46.413Z,4.80
2017-10-15T13:33:14.538Z,5.30
2017-10-15T13:35:42.898Z,7.57
2017-10-15T13:38:12.327Z,4.70
2017-10-15T13:40:40.475Z,5.00
2017-10-15T13:43:08.749Z,5.10
2017-10-15T13:45:37.203Z,4.93
2017-10-15T13:48:05.319Z,4.37
2017-10-15T13:50:33.438Z,3.90
2017-10-15T13:53:01.480Z,5.70
2017-10-15T13:55:29.508Z,5.73
2017-10-15T13:57:58.187Z,4.30
2017-10-15T14:00:26.399Z,5.60
2017-10-15T14:02:55.558Z,4.93
2017-10-15T14:05:24.622Z,5.10
2017-10-15T14:07:54.089Z,6.23
2017-10-15T14:10:22.853Z,5.30
2017-10-15T14:12:51.972Z,5.80
2017-10-15T14:15:21.316Z,5.70
2017-10-15T14:17:51.852Z,5.37
2017-10-15T14:20:21.210Z,5.87
2017-10-15T14:22:50.174Z,4.40
2017-10-15T14:25:19.306Z,5.40
2017-10-15T14:27:47.970Z,4.70
2017-10-15T14:30:18.521Z,4.80
2017-10-15T14:32:47.199Z,5.00
2017-10-15T14:35:16.179Z,4.70
2017-10-15T14:37:45.351Z,5.20
2017-10-15T14:40:14.239Z,4.83
2017-10-15T14:42:42.723Z,4.60
2017-10-15T14:45:12.726Z,5.67
2017-10-15T14:47:47.459Z,7.37
2017-10-15T14:50:15.993Z,7.07
2017-10-15T14:52:44.681Z,6.10
2017-10-15T14:55:14.209Z,6.50
2017-10-15T14:57:43.465Z,5.93
2017-10-15T15:00:13.193Z,6.70
2017-10-15T15:02:41.662Z,6.30
2017-10-15T15:05:10.670Z,5.83
2017-10-15T15:07:40.117Z,6.40
2017-10-15T15:10:22.227Z,6.80
2017-10-15T15:13:08.957Z,7.10
2017-10-15T15:15:43.291Z,6.77
2017-10-15T15:18:13.434Z,6.53
2017-10-15T15:20:42.588Z,6.83
2017-10-15T15:23:12.723Z,6.17
2017-10-15T15:25:42.085Z,6.50
2017-10-15T15:28:11.612Z,7.53
2017-10-15T15:30:44.739Z,7.37
2017-10-15T15:33:15.994Z,7.97
2017-10-15T15:35:45.454Z,6.67
2017-10-15T15:38:14.458Z,7.53
2017-10-15T15:40:44.029Z,6.43
2017-10-15T15:43:16.144Z,7.53
2017-10-15T15:45:45.754Z,8.00
2017-10-15T15:48:14.737Z,7.70
2017-10-15T15:50:44.538Z,8.10
2017-10-15T15:53:13.150Z,8.30
2017-10-15T15:55:41.412Z,7.57
2017-10-15T15:58:10.116Z,8.77
2017-10-15T16:00:38.933Z,8.30
2017-10-15T16:03:07.218Z,6.67
2017-10-15T16:05:35.876Z,7.83
2017-10-15T16:08:04.587Z,8.67
2017-10-15T16:10:33.212Z,8.57
2017-10-15T16:13:01.634Z,8.80
2017-10-15T16:15:30.339Z,8.50
2017-10-15T16:17:59.305Z,9.07
2017-10-15T16:20:28.471Z,8.93
2017-10-15T16:22:58.901Z,9.80
2017-10-15T16:25:28.504Z,10.20
2017-10-15T16:27:59.115Z,9.80
2017-10-15T16:30:28.621Z,9.33
2017-10-15T16:32:57.589Z,11.10
2017-10-15T16:35:26.143Z,9.67
2017-10-15T16:37:54.721Z,10.53
2017-10-15T16:40:23.207Z,10.20
2017-10-15T16:42:53.305Z,10.40
2017-10-15T16:45:23.346Z,10.57
2017-10-15T16:47:51.883Z,9.70
2017-10-15T16:50:20.690Z,9.87
2017-10-15T16:52:50.219Z,10.53
2017-10-15T16:55:19.816Z,10.17
2017-10-15T16:57:50.956Z,9.60
2017-10-15T17:00:19.617Z,10.40
2017-10-15T17:02:48.439Z,9.67
2017-10-15T17:05:16.936Z,10.07
2017-10-15T17:07:45.916Z,8.87
2017-10-15T17:10:14.507Z,9.67
2017-10-15T17:12:43.297Z,11.10
2017-10-15T17:15:12.259Z,11.77
2017-10-15T17:17:41.535Z,12.63
2017-10-15T17:20:10.496Z,11.13
2017-10-15T17:22:39.234Z,11.70
2017-10-15T17:25:08.126Z,11.70
2017-10-15T17:27:36.980Z,12.00
2017-10-15T17:30:09.319Z,12.10
2017-10-15T17:32:38.013Z,12.57
2017-10-15T17:35:06.990Z,13.17
2017-10-15T17:37:36.073Z,13.80
2017-10-15T17:40:05.273Z,13.47
2017-10-15T17:42:34.425Z,13.67
2017-10-15T17:45:02.962Z,13.10
2017-10-15T17:47:31.680Z,12.40
2017-10-15T17:50:01.001Z,14.80
2017-10-15T17:52:29.824Z,13.20
2017-10-15T17:54:58.362Z,11.17
2017-10-15T17:57:27.008Z,13.03
2017-10-15T17:59:55.594Z,10.43
2017-10-15T18:02:36.759Z,9.70
2017-10-15T18:05:06.256Z,9.20
2017-10-15T18:07:36.077Z,8.47
2017-10-15T18:10:05.034Z,9.50
2017-10-15T18:12:33.928Z,9.97
2017-10-15T18:15:02.844Z,10.20
2017-10-15T18:17:32.752Z,10.80
2017-10-15T18:20:01.754Z,13.07
2017-10-15T18:22:30.940Z,12.23
2017-10-15T18:24:59.649Z,11.30
2017-10-15T18:27:29.656Z,10.20
2017-10-15T18:29:59.369Z,9.93
2017-10-15T18:32:28.834Z,9.30
2017-10-15T18:34:57.391Z,9.80
2017-10-15T18:37:26.022Z,14.40
2017-10-15T18:39:54.884Z,10.20
2017-10-15T18:42:23.386Z,9.57
2017-10-15T18:44:51.563Z,10.10
2017-10-15T18:47:20.166Z,9.93
2017-10-15T18:49:48.483Z,9.50
2017-10-15T18:52:16.930Z,10.20
2017-10-15T18:54:45.640Z,10.33
2017-10-15T18:57:16.091Z,9.77
2017-10-15T18:59:51.657Z,9.80
2017-10-15T19:02:21.605Z,10.07
2017-10-15T19:04:51.265Z,9.77
2017-10-15T19:07:21.123Z,9.73
2017-10-15T19:09:52.150Z,9.87
2017-10-15T19:12:21.525Z,8.87
2017-10-15T19:14:50.675Z,9.77
2017-10-15T19:17:19.154Z,9.60
2017-10-15T19:19:48.447Z,9.77
2017-10-15T19:22:17.167Z,8.90
2017-10-15T19:24:45.498Z,10.87
2017-10-15T19:27:13.613Z,9.30
2017-10-15T19:29:42.063Z,11.57
2017-10-15T19:32:10.554Z,9.00
2017-10-15T19:34:39.002Z,9.50
2017-10-15T19:37:07.215Z,9.17
2017-10-15T19:39:35.542Z,8.27
2017-10-15T19:42:04.008Z,8.50
2017-10-15T19:44:32.619Z,8.67
2017-10-15T19:47:00.798Z,9.13
2017-10-15T19:49:29.028Z,8.23
2017-10-15T19:51:57.307Z,8.90
2017-10-15T19:54:25.313Z,9.60
2017-10-15T19:56:53.113Z,8.93
2017-10-15T19:59:21.157Z,9.43
2017-10-15T20:01:49.162Z,10.07
2017-10-15T20:04:17.128Z,9.80
2017-10-15T20:06:44.791Z,9.70
2017-10-15T20:09:12.831Z,11.93
2017-10-15T20:11:40.685Z,10.20
2017-10-15T20:14:08.627Z,9.77
2017-10-15T20:16:37.275Z,9.40
2017-10-15T20:19:05.254Z,9.37
2017-10-15T20:21:33.397Z,10.87
2017-10-15T20:24:01.507Z,12.00
2017-10-15T20:26:29.613Z,10.87
2017-10-15T20:28:57.636Z,12.10
2017-10-15T20:31:25.982Z,9.13
2017-10-15T20:33:54.381Z,8.93
2017-10-15T20:36:23.146Z,8.53
2017-10-15T20:38:50.906Z,8.50
2017-10-15T20:41:18.752Z,8.80
2017-10-15T20:43:48.919Z,8.80
2017-10-15T20:46:16.892Z,8.43
2017-10-15T20:48:44.801Z,8.70
2017-10-15T20:51:12.739Z,9.53
2017-10-15T20:53:40.907Z,8.53
2017-10-15T20:56:08.969Z,8.23
2017-10-15T20:58:36.608Z,9.27
2017-10-15T21:01:04.235Z,8.57
2017-10-15T21:03:31.846Z,8.63
2017-10-15T21:05:59.475Z,7.50
2017-10-15T21:08:27.111Z,7.57
2017-10-15T21:10:54.694Z,7.50
2017-10-15T21:13:22.271Z,7.40
2017-10-15T21:15:50.121Z,8.03
2017-10-15T21:18:17.751Z,7.90
2017-10-15T21:20:45.387Z,7.27
2017-10-15T21:23:13.059Z,8.40
2017-10-15T21:25:40.682Z,8.27
2017-10-15T21:28:09.323Z,8.10
2017-10-15T21:30:36.911Z,7.80
2017-10-15T21:33:04.566Z,7.47
2017-10-15T21:35:32.369Z,7.37
2017-10-15T21:38:00.119Z,7.93
2017-10-15T21:40:27.823Z,8.37
2017-10-15T21:42:55.552Z,8.00
2017-10-15T21:45:23.187Z,8.30
2017-10-15T21:47:51.119Z,7.70
2017-10-15T21:50:18.833Z,8.33
2017-10-15T21:52:46.703Z,10.73
2017-10-15T21:55:14.276Z,8.13
2017-10-15T21:57:42.648Z,9.07
2017-10-15T22:00:13.118Z,9.97
2017-10-15T22:02:41.209Z,9.50
2017-10-15T22:05:13.168Z,9.90
2017-10-15T22:07:40.999Z,11.07
2017-10-15T22:10:09.844Z,8.27
2017-10-15T22:12:39.167Z,8.27
2017-10-15T22:15:13.022Z,7.70
2017-10-15T22:17:42.297Z,8.30
2017-10-15T22:20:10.323Z,9.97
2017-10-15T22:22:40.691Z,8.50
2017-10-15T22:25:13.099Z,9.23
2017-10-15T22:27:45.105Z,9.40
2017-10-15T22:30:13.114Z,8.20
2017-10-15T22:32:41.162Z,9.37
2017-10-15T22:35:08.988Z,10.13
2017-10-15T22:37:36.832Z,10.60
2017-10-15T22:40:05.421Z,13.57
2017-10-15T22:42:33.209Z,13.20
2017-10-15T22:45:01.172Z,14.93
2017-10-15T22:47:28.862Z,14.90
2017-10-15T22:50:02.793Z,15.20
2017-10-15T22:52:30.656Z,14.73
2017-10-15T22:54:58.575Z,15.10
2017-10-15T22:57:26.276Z,14.63
2017-10-15T22:59:54.046Z,15.60
2017-10-15T23:02:21.771Z,14.23
2017-10-15T23:04:49.459Z,14.77
2017-10-15T23:07:17.450Z,14.73
2017-10-15T23:09:45.107Z,15.90
2017-10-15T23:12:12.788Z,14.80
2017-10-15T23:14:40.764Z,14.67
2017-10-15T23:17:08.464Z,16.67
2017-10-15T23:19:36.087Z,19.17
2017-10-15T23:22:03.885Z,17.03
2017-10-15T23:24:31.535Z,17.40
2017-10-15T23:26:59.074Z,17.00
2017-10-15T23:29:26.683Z,16.07
2017-10-15T23:31:54.349Z,16.53
2017-10-15T23:34:22.184Z,17.20
2017-10-15T23:36:49.957Z,16.43
2017-10-15T23:39:17.567Z,17.00
2017-10-15T23:41:45.107Z,17.20
2017-10-15T23:44:12.784Z,18.00
2017-10-15T23:46:40.399Z,17.00
2017-10-15T23:49:07.940Z,18.87
2017-10-15T23:51:35.503Z,18.80
2017-10-15T23:54:03.145Z,20.37
2017-10-15T23:56:30.715Z,19.57
2017-10-15T23:58:58.322Z,18.40
